sensor_id;sensor_type;location;lat;lon;timestamp;P1;durP1;ratioP1;P2;durP2;ratioP2
70924;SDS011;58577;52.410;13.242;2022-12-01T00:00:39;63.92;;;22.77;;
70924;SDS011;58577;52.410;13.242;2022-12-01T00:03:25;69.00;;;23.63;;
70924;SDS011;58577;52.410;13.242;2022-12-01T00:06:16;72.35;;;23.38;;
70924;SDS011;58577;52.410;13.242;2022-12-01T00:09:03;71.25;;;25.15;;
70924;SDS011;58577;52.410;13.242;2022-12-01T00:12:07;76.35;;;23.77;;
70924;SDS011;58577;52.410;13.242;2022-12-01T00:14:53;65.70;;;24.17;;
70924;SDS011;58577;52.410;13.242;2022-12-01T00:17:39;65.25;;;22.05;;
70924;SDS011;58577;52.410;13.242;2022-12-01T00:20:28;71.45;;;23.88;;
70924;SDS011;58577;52.410;13.242;2022-12-01T00:23:14;69.65;;;23.50;;
70924;SDS011;58577;52.410;13.242;2022-12-01T00:26:03;71.80;;;23.75;;
70924;SDS011;58577;52.410;13.242;2022-12-01T00:28:50;73.30;;;24.67;;
70924;SDS011;58577;52.410;13.242;2022-12-01T00:31:38;76.10;;;25.25;;
70924;SDS011;58577;52.410;13.242;2022-12-01T00:34:24;78.22;;;25.42;;
70924;SDS011;58577;52.410;13.242;2022-12-01T00:37:10;65.97;;;23.00;;
70924;SDS011;58577;52.410;13.242;2022-12-01T00:39:56;72.68;;;23.83;;
70924;SDS011;58577;52.410;13.242;2022-12-01T00:42:42;65.07;;;22.83;;
70924;SDS011;58577;52.410;13.242;2022-12-01T00:45:28;65.65;;;22.73;;
70924;SDS011;58577;52.410;13.242;2022-12-01T00:48:13;68.93;;;24.83;;
70924;SDS011;58577;52.410;13.242;2022-12-01T00:50:59;62.88;;;23.80;;
70924;SDS011;58577;52.410;13.242;2022-12-01T00:53:46;68.38;;;22.85;;
70924;SDS011;58577;52.410;13.242;2022-12-01T00:56:31;70.78;;;23.83;;
70924;SDS011;58577;52.410;13.242;2022-12-01T00:59:18;69.93;;;24.33;;
70924;SDS011;58577;52.410;13.242;2022-12-01T01:02:04;68.47;;;21.98;;
70924;SDS011;58577;52.410;13.242;2022-12-01T01:04:51;70.25;;;23.08;;
70924;SDS011;58577;52.410;13.242;2022-12-01T01:07:37;71.70;;;23.15;;
70924;SDS011;58577;52.410;13.242;2022-12-01T01:10:23;74.80;;;23.75;;
70924;SDS011;58577;52.410;13.242;2022-12-01T01:13:11;78.05;;;26.40;;
70924;SDS011;58577;52.410;13.242;2022-12-01T01:15:59;77.28;;;25.45;;
70924;SDS011;58577;52.410;13.242;2022-12-01T01:18:47;70.25;;;22.58;;
70924;SDS011;58577;52.410;13.242;2022-12-01T01:21:33;66.90;;;24.20;;
70924;SDS011;58577;52.410;13.242;2022-12-01T01:24:19;64.80;;;23.63;;
70924;SDS011;58577;52.410;13.242;2022-12-01T01:27:05;72.47;;;23.88;;
70924;SDS011;58577;52.410;13.242;2022-12-01T01:29:51;71.50;;;21.67;;
70924;SDS011;58577;52.410;13.242;2022-12-01T01:32:37;69.53;;;23.88;;
70924;SDS011;58577;52.410;13.242;2022-12-01T01:35:24;65.85;;;24.30;;
70924;SDS011;58577;52.410;13.242;2022-12-01T01:38:10;69.80;;;23.25;;
70924;SDS011;58577;52.410;13.242;2022-12-01T01:40:56;77.97;;;24.33;;
70924;SDS011;58577;52.410;13.242;2022-12-01T01:43:43;71.53;;;24.45;;
70924;SDS011;58577;52.410;13.242;2022-12-01T01:46:30;70.00;;;22.95;;
70924;SDS011;58577;52.410;13.242;2022-12-01T01:49:18;69.78;;;24.23;;
70924;SDS011;58577;52.410;13.242;2022-12-01T01:52:03;71.03;;;22.67;;
70924;SDS011;58577;52.410;13.242;2022-12-01T01:54:50;65.50;;;23.67;;
70924;SDS011;58577;52.410;13.242;2022-12-01T01:57:39;67.53;;;23.05;;
70924;SDS011;58577;52.410;13.242;2022-12-01T02:00:27;64.70;;;21.98;;
70924;SDS011;58577;52.410;13.242;2022-12-01T02:03:17;68.93;;;24.15;;
70924;SDS011;58577;52.410;13.242;2022-12-01T02:06:05;71.18;;;23.50;;
70924;SDS011;58577;52.410;13.242;2022-12-01T02:08:53;64.30;;;22.40;;
70924;SDS011;58577;52.410;13.242;2022-12-01T02:14:59;60.55;;;21.27;;
70924;SDS011;58577;52.410;13.242;2022-12-01T02:33:57;72.22;;;23.80;;
70924;SDS011;58577;52.410;13.242;2022-12-01T02:36:52;75.75;;;23.35;;
70924;SDS011;58577;52.410;13.242;2022-12-01T02:40:19;68.25;;;22.92;;
70924;SDS011;58577;52.410;13.242;2022-12-01T02:43:21;67.20;;;23.27;;
70924;SDS011;58577;52.410;13.242;2022-12-01T02:46:16;64.93;;;23.40;;
70924;SDS011;58577;52.410;13.242;2022-12-01T02:49:09;69.15;;;23.15;;
70924;SDS011;58577;52.410;13.242;2022-12-01T02:51:58;77.70;;;22.40;;
70924;SDS011;58577;52.410;13.242;2022-12-01T02:54:46;60.75;;;21.25;;
70924;SDS011;58577;52.410;13.242;2022-12-01T02:57:35;62.83;;;20.65;;
70924;SDS011;58577;52.410;13.242;2022-12-01T03:00:21;67.15;;;22.80;;
70924;SDS011;58577;52.410;13.242;2022-12-01T03:06:42;70.68;;;21.98;;
70924;SDS011;58577;52.410;13.242;2022-12-01T03:19:13;73.43;;;21.90;;
70924;SDS011;58577;52.410;13.242;2022-12-01T03:22:22;70.50;;;24.17;;
70924;SDS011;58577;52.410;13.242;2022-12-01T03:25:13;65.65;;;22.98;;
70924;SDS011;58577;52.410;13.242;2022-12-01T03:28:00;66.80;;;22.70;;
70924;SDS011;58577;52.410;13.242;2022-12-01T03:30:50;65.75;;;22.02;;
70924;SDS011;58577;52.410;13.242;2022-12-01T03:36:32;66.88;;;23.40;;
70924;SDS011;58577;52.410;13.242;2022-12-01T03:39:25;67.88;;;24.83;;
70924;SDS011;58577;52.410;13.242;2022-12-01T03:42:25;68.22;;;22.52;;
70924;SDS011;58577;52.410;13.242;2022-12-01T03:45:39;65.78;;;21.60;;
70924;SDS011;58577;52.410;13.242;2022-12-01T03:48:27;71.38;;;22.60;;
70924;SDS011;58577;52.410;13.242;2022-12-01T03:51:17;70.28;;;24.05;;
70924;SDS011;58577;52.410;13.242;2022-12-01T03:55:12;65.72;;;23.65;;
70924;SDS011;58577;52.410;13.242;2022-12-01T04:00:46;74.03;;;22.88;;
70924;SDS011;58577;52.410;13.242;2022-12-01T04:03:34;72.47;;;23.35;;
70924;SDS011;58577;52.410;13.242;2022-12-01T04:06:20;68.93;;;22.17;;
70924;SDS011;58577;52.410;13.242;2022-12-01T04:09:06;73.38;;;24.25;;
70924;SDS011;58577;52.410;13.242;2022-12-01T04:11:52;77.68;;;24.02;;
70924;SDS011;58577;52.410;13.242;2022-12-01T04:14:56;75.85;;;24.20;;
70924;SDS011;58577;52.410;13.242;2022-12-01T04:17:50;83.32;;;22.48;;
70924;SDS011;58577;52.410;13.242;2022-12-01T04:20:36;71.38;;;22.98;;
70924;SDS011;58577;52.410;13.242;2022-12-01T04:23:22;77.60;;;23.92;;
70924;SDS011;58577;52.410;13.242;2022-12-01T04:26:29;68.38;;;23.17;;
70924;SDS011;58577;52.410;13.242;2022-12-01T04:29:19;72.50;;;23.17;;
70924;SDS011;58577;52.410;13.242;2022-12-01T04:32:05;74.00;;;24.60;;
70924;SDS011;58577;52.410;13.242;2022-12-01T04:34:51;71.90;;;22.70;;
70924;SDS011;58577;52.410;13.242;2022-12-01T04:37:38;73.53;;;23.90;;
70924;SDS011;58577;52.410;13.242;2022-12-01T04:40:24;82.65;;;24.15;;
70924;SDS011;58577;52.410;13.242;2022-12-01T04:43:10;77.55;;;24.75;;
70924;SDS011;58577;52.410;13.242;2022-12-01T04:45:56;75.72;;;24.25;;
70924;SDS011;58577;52.410;13.242;2022-12-01T04:48:41;80.35;;;24.70;;
70924;SDS011;58577;52.410;13.242;2022-12-01T04:51:27;82.05;;;24.27;;
70924;SDS011;58577;52.410;13.242;2022-12-01T04:54:13;80.75;;;25.30;;
70924;SDS011;58577;52.410;13.242;2022-12-01T04:57:00;81.07;;;25.92;;
70924;SDS011;58577;52.410;13.242;2022-12-01T04:59:46;80.30;;;25.38;;
70924;SDS011;58577;52.410;13.242;2022-12-01T05:02:32;75.15;;;26.55;;
70924;SDS011;58577;52.410;13.242;2022-12-01T05:05:18;82.03;;;28.48;;
70924;SDS011;58577;52.410;13.242;2022-12-01T05:08:04;86.32;;;26.38;;
70924;SDS011;58577;52.410;13.242;2022-12-01T05:10:53;74.45;;;25.98;;
70924;SDS011;58577;52.410;13.242;2022-12-01T05:13:41;92.67;;;27.17;;
70924;SDS011;58577;52.410;13.242;2022-12-01T05:16:29;70.65;;;23.17;;
70924;SDS011;58577;52.410;13.242;2022-12-01T05:19:16;80.35;;;24.92;;
70924;SDS011;58577;52.410;13.242;2022-12-01T05:22:21;73.00;;;24.30;;
70924;SDS011;58577;52.410;13.242;2022-12-01T05:25:07;77.90;;;25.75;;
70924;SDS011;58577;52.410;13.242;2022-12-01T05:27:53;73.15;;;26.42;;
70924;SDS011;58577;52.410;13.242;2022-12-01T05:30:39;75.15;;;25.20;;
70924;SDS011;58577;52.410;13.242;2022-12-01T05:33:25;79.53;;;25.80;;
70924;SDS011;58577;52.410;13.242;2022-12-01T05:36:12;74.40;;;24.95;;
70924;SDS011;58577;52.410;13.242;2022-12-01T05:38:58;80.55;;;24.98;;
70924;SDS011;58577;52.410;13.242;2022-12-01T05:41:43;76.00;;;25.40;;
70924;SDS011;58577;52.410;13.242;2022-12-01T05:44:29;77.63;;;26.55;;
70924;SDS011;58577;52.410;13.242;2022-12-01T05:47:15;76.63;;;25.48;;
70924;SDS011;58577;52.410;13.242;2022-12-01T05:50:01;83.13;;;28.63;;
70924;SDS011;58577;52.410;13.242;2022-12-01T05:52:47;80.47;;;27.63;;
70924;SDS011;58577;52.410;13.242;2022-12-01T05:55:33;79.53;;;26.27;;
70924;SDS011;58577;52.410;13.242;2022-12-01T05:58:19;81.95;;;27.70;;
70924;SDS011;58577;52.410;13.242;2022-12-01T06:01:06;71.43;;;22.90;;
70924;SDS011;58577;52.410;13.242;2022-12-01T06:03:52;71.05;;;25.73;;
70924;SDS011;58577;52.410;13.242;2022-12-01T06:06:38;73.28;;;25.67;;
70924;SDS011;58577;52.410;13.242;2022-12-01T06:09:24;69.93;;;23.98;;
70924;SDS011;58577;52.410;13.242;2022-12-01T06:12:11;67.47;;;24.10;;
70924;SDS011;58577;52.410;13.242;2022-12-01T06:14:57;77.63;;;25.33;;
70924;SDS011;58577;52.410;13.242;2022-12-01T06:17:43;67.68;;;25.05;;
70924;SDS011;58577;52.410;13.242;2022-12-01T06:20:29;69.70;;;25.52;;
70924;SDS011;58577;52.410;13.242;2022-12-01T06:23:15;71.03;;;24.30;;
70924;SDS011;58577;52.410;13.242;2022-12-01T06:26:01;74.80;;;27.10;;
70924;SDS011;58577;52.410;13.242;2022-12-01T06:28:46;70.47;;;23.77;;
70924;SDS011;58577;52.410;13.242;2022-12-01T06:31:32;81.05;;;26.90;;
70924;SDS011;58577;52.410;13.242;2022-12-01T06:34:18;74.97;;;24.65;;
70924;SDS011;58577;52.410;13.242;2022-12-01T06:37:04;79.07;;;25.58;;
70924;SDS011;58577;52.410;13.242;2022-12-01T06:39:51;71.95;;;25.00;;
70924;SDS011;58577;52.410;13.242;2022-12-01T06:42:36;80.00;;;26.92;;
70924;SDS011;58577;52.410;13.242;2022-12-01T06:45:22;70.38;;;24.88;;
70924;SDS011;58577;52.410;13.242;2022-12-01T06:48:08;76.95;;;25.60;;
70924;SDS011;58577;52.410;13.242;2022-12-01T06:50:57;73.72;;;23.58;;
70924;SDS011;58577;52.410;13.242;2022-12-01T06:53:44;83.10;;;27.42;;
70924;SDS011;58577;52.410;13.242;2022-12-01T06:56:30;81.47;;;28.48;;
70924;SDS011;58577;52.410;13.242;2022-12-01T06:59:15;76.00;;;25.63;;
70924;SDS011;58577;52.410;13.242;2022-12-01T07:02:01;83.70;;;27.25;;
70924;SDS011;58577;52.410;13.242;2022-12-01T07:04:47;81.72;;;27.58;;
70924;SDS011;58577;52.410;13.242;2022-12-01T07:07:37;68.63;;;23.80;;
70924;SDS011;58577;52.410;13.242;2022-12-01T07:10:23;84.45;;;28.38;;
70924;SDS011;58577;52.410;13.242;2022-12-01T07:13:09;77.40;;;24.40;;
70924;SDS011;58577;52.410;13.242;2022-12-01T07:15:56;75.60;;;26.88;;
70924;SDS011;58577;52.410;13.242;2022-12-01T07:18:42;78.65;;;26.50;;
70924;SDS011;58577;52.410;13.242;2022-12-01T07:21:29;78.20;;;27.67;;
70924;SDS011;58577;52.410;13.242;2022-12-01T07:24:15;76.38;;;27.75;;
70924;SDS011;58577;52.410;13.242;2022-12-01T07:27:01;84.40;;;26.48;;
70924;SDS011;58577;52.410;13.242;2022-12-01T07:29:47;71.65;;;24.67;;
70924;SDS011;58577;52.410;13.242;2022-12-01T07:32:32;79.30;;;25.63;;
70924;SDS011;58577;52.410;13.242;2022-12-01T07:35:18;64.78;;;23.73;;
70924;SDS011;58577;52.410;13.242;2022-12-01T07:38:04;71.15;;;25.60;;
70924;SDS011;58577;52.410;13.242;2022-12-01T07:40:50;74.18;;;25.23;;
70924;SDS011;58577;52.410;13.242;2022-12-01T07:43:36;69.97;;;24.67;;
70924;SDS011;58577;52.410;13.242;2022-12-01T07:46:23;74.93;;;25.70;;
70924;SDS011;58577;52.410;13.242;2022-12-01T07:49:10;67.95;;;24.48;;
70924;SDS011;58577;52.410;13.242;2022-12-01T07:51:59;72.97;;;26.38;;
70924;SDS011;58577;52.410;13.242;2022-12-01T07:54:45;78.65;;;25.55;;
70924;SDS011;58577;52.410;13.242;2022-12-01T07:57:30;76.30;;;28.10;;
70924;SDS011;58577;52.410;13.242;2022-12-01T08:00:16;70.82;;;25.88;;
70924;SDS011;58577;52.410;13.242;2022-12-01T08:03:02;77.38;;;25.85;;
70924;SDS011;58577;52.410;13.242;2022-12-01T08:05:57;74.05;;;25.80;;
70924;SDS011;58577;52.410;13.242;2022-12-01T08:08:44;69.75;;;26.60;;
70924;SDS011;58577;52.410;13.242;2022-12-01T08:11:31;73.57;;;26.52;;
70924;SDS011;58577;52.410;13.242;2022-12-01T08:14:16;70.03;;;25.08;;
70924;SDS011;58577;52.410;13.242;2022-12-01T08:17:02;76.82;;;26.70;;
70924;SDS011;58577;52.410;13.242;2022-12-01T08:19:48;82.30;;;28.17;;
70924;SDS011;58577;52.410;13.242;2022-12-01T08:22:34;80.95;;;26.33;;
70924;SDS011;58577;52.410;13.242;2022-12-01T08:25:20;72.32;;;25.70;;
70924;SDS011;58577;52.410;13.242;2022-12-01T08:28:06;75.75;;;26.98;;
70924;SDS011;58577;52.410;13.242;2022-12-01T08:30:51;71.47;;;25.38;;
70924;SDS011;58577;52.410;13.242;2022-12-01T08:33:37;75.70;;;25.85;;
70924;SDS011;58577;52.410;13.242;2022-12-01T08:36:23;83.78;;;28.08;;
70924;SDS011;58577;52.410;13.242;2022-12-01T08:39:10;82.35;;;28.55;;
70924;SDS011;58577;52.410;13.242;2022-12-01T08:41:56;85.45;;;28.13;;
70924;SDS011;58577;52.410;13.242;2022-12-01T08:44:41;90.03;;;30.88;;
70924;SDS011;58577;52.410;13.242;2022-12-01T08:47:27;93.43;;;29.25;;
70924;SDS011;58577;52.410;13.242;2022-12-01T08:50:13;90.72;;;30.30;;
70924;SDS011;58577;52.410;13.242;2022-12-01T08:52:59;97.60;;;30.42;;
70924;SDS011;58577;52.410;13.242;2022-12-01T08:55:45;98.85;;;30.63;;
70924;SDS011;58577;52.410;13.242;2022-12-01T08:58:31;93.75;;;30.15;;
70924;SDS011;58577;52.410;13.242;2022-12-01T09:01:17;96.80;;;30.48;;
70924;SDS011;58577;52.410;13.242;2022-12-01T09:04:03;98.75;;;31.08;;
70924;SDS011;58577;52.410;13.242;2022-12-01T09:06:55;97.07;;;31.90;;
70924;SDS011;58577;52.410;13.242;2022-12-01T09:09:43;101.88;;;31.20;;
70924;SDS011;58577;52.410;13.242;2022-12-01T09:12:29;104.78;;;31.90;;
70924;SDS011;58577;52.410;13.242;2022-12-01T09:15:15;104.20;;;31.63;;
70924;SDS011;58577;52.410;13.242;2022-12-01T09:18:01;102.93;;;31.33;;
70924;SDS011;58577;52.410;13.242;2022-12-01T09:20:47;98.75;;;32.13;;
70924;SDS011;58577;52.410;13.242;2022-12-01T09:23:32;97.93;;;31.35;;
70924;SDS011;58577;52.410;13.242;2022-12-01T09:26:19;107.20;;;33.88;;
70924;SDS011;58577;52.410;13.242;2022-12-01T09:29:06;112.63;;;32.92;;
70924;SDS011;58577;52.410;13.242;2022-12-01T09:31:54;97.35;;;32.78;;
70924;SDS011;58577;52.410;13.242;2022-12-01T09:34:41;109.05;;;29.58;;
70924;SDS011;58577;52.410;13.242;2022-12-01T09:37:27;109.85;;;34.47;;
70924;SDS011;58577;52.410;13.242;2022-12-01T09:40:13;106.30;;;31.33;;
70924;SDS011;58577;52.410;13.242;2022-12-01T09:43:00;105.70;;;33.28;;
70924;SDS011;58577;52.410;13.242;2022-12-01T09:45:53;115.20;;;35.78;;
70924;SDS011;58577;52.410;13.242;2022-12-01T09:48:46;96.43;;;31.80;;
70924;SDS011;58577;52.410;13.242;2022-12-01T09:51:34;108.95;;;32.33;;
70924;SDS011;58577;52.410;13.242;2022-12-01T09:54:21;110.13;;;35.60;;
70924;SDS011;58577;52.410;13.242;2022-12-01T09:57:13;97.00;;;32.83;;
70924;SDS011;58577;52.410;13.242;2022-12-01T10:00:45;109.40;;;33.17;;
70924;SDS011;58577;52.410;13.242;2022-12-01T10:06:04;115.40;;;35.28;;
70924;SDS011;58577;52.410;13.242;2022-12-01T10:12:13;115.60;;;34.28;;
70924;SDS011;58577;52.410;13.242;2022-12-01T10:24:49;116.63;;;37.58;;
70924;SDS011;58577;52.410;13.242;2022-12-01T10:30:38;102.85;;;32.40;;
70924;SDS011;58577;52.410;13.242;2022-12-01T10:33:37;112.53;;;32.08;;
70924;SDS011;58577;52.410;13.242;2022-12-01T10:36:31;98.60;;;31.50;;
70924;SDS011;58577;52.410;13.242;2022-12-01T10:39:29;111.13;;;35.10;;
70924;SDS011;58577;52.410;13.242;2022-12-01T10:42:43;105.03;;;33.80;;
70924;SDS011;58577;52.410;13.242;2022-12-01T10:45:33;101.47;;;35.10;;
70924;SDS011;58577;52.410;13.242;2022-12-01T10:48:21;107.07;;;37.10;;
70924;SDS011;58577;52.410;13.242;2022-12-01T10:51:14;117.10;;;33.40;;
70924;SDS011;58577;52.410;13.242;2022-12-01T10:54:05;103.47;;;31.33;;
70924;SDS011;58577;52.410;13.242;2022-12-01T10:56:56;106.22;;;34.33;;
70924;SDS011;58577;52.410;13.242;2022-12-01T10:59:47;101.97;;;32.90;;
70924;SDS011;58577;52.410;13.242;2022-12-01T11:02:36;97.60;;;32.08;;
70924;SDS011;58577;52.410;13.242;2022-12-01T11:05:23;100.93;;;33.38;;
70924;SDS011;58577;52.410;13.242;2022-12-01T11:08:35;97.95;;;32.28;;
70924;SDS011;58577;52.410;13.242;2022-12-01T11:17:15;89.50;;;29.73;;
70924;SDS011;58577;52.410;13.242;2022-12-01T11:20:23;98.82;;;32.90;;
70924;SDS011;58577;52.410;13.242;2022-12-01T11:29:01;96.32;;;29.98;;
70924;SDS011;58577;52.410;13.242;2022-12-01T11:31:49;100.00;;;31.92;;
70924;SDS011;58577;52.410;13.242;2022-12-01T11:34:37;100.35;;;33.70;;
70924;SDS011;58577;52.410;13.242;2022-12-01T11:37:24;96.93;;;31.55;;
70924;SDS011;58577;52.410;13.242;2022-12-01T11:40:17;91.50;;;30.85;;
70924;SDS011;58577;52.410;13.242;2022-12-01T11:43:13;92.38;;;30.77;;
70924;SDS011;58577;52.410;13.242;2022-12-01T11:46:14;94.88;;;31.45;;
70924;SDS011;58577;52.410;13.242;2022-12-01T11:49:01;87.15;;;29.85;;
70924;SDS011;58577;52.410;13.242;2022-12-01T11:51:47;92.38;;;31.67;;
70924;SDS011;58577;52.410;13.242;2022-12-01T11:54:34;91.80;;;30.88;;
70924;SDS011;58577;52.410;13.242;2022-12-01T11:57:20;82.07;;;29.25;;
70924;SDS011;58577;52.410;13.242;2022-12-01T12:12:10;85.80;;;30.27;;
70924;SDS011;58577;52.410;13.242;2022-12-01T12:27:41;84.53;;;29.67;;
70924;SDS011;58577;52.410;13.242;2022-12-01T12:49:49;73.07;;;27.17;;
70924;SDS011;58577;52.410;13.242;2022-12-01T12:52:47;68.28;;;25.50;;
70924;SDS011;58577;52.410;13.242;2022-12-01T12:55:36;66.53;;;25.98;;
70924;SDS011;58577;52.410;13.242;2022-12-01T12:58:26;68.15;;;24.75;;
70924;SDS011;58577;52.410;13.242;2022-12-01T13:01:20;74.25;;;27.15;;
70924;SDS011;58577;52.410;13.242;2022-12-01T13:04:14;69.63;;;24.73;;
70924;SDS011;58577;52.410;13.242;2022-12-01T13:07:18;66.80;;;24.20;;
70924;SDS011;58577;52.410;13.242;2022-12-01T13:15:58;64.97;;;23.92;;
70924;SDS011;58577;52.410;13.242;2022-12-01T13:18:50;66.40;;;26.42;;
70924;SDS011;58577;52.410;13.242;2022-12-01T13:21:44;63.75;;;24.88;;
70924;SDS011;58577;52.410;13.242;2022-12-01T13:24:32;63.00;;;23.60;;
70924;SDS011;58577;52.410;13.242;2022-12-01T13:27:22;63.40;;;24.75;;
70924;SDS011;58577;52.410;13.242;2022-12-01T13:30:19;63.65;;;27.73;;
70924;SDS011;58577;52.410;13.242;2022-12-01T13:33:12;69.55;;;24.92;;
70924;SDS011;58577;52.410;13.242;2022-12-01T13:36:00;65.05;;;25.30;;
70924;SDS011;58577;52.410;13.242;2022-12-01T13:38:55;68.95;;;24.95;;
70924;SDS011;58577;52.410;13.242;2022-12-01T13:41:42;61.93;;;24.60;;
70924;SDS011;58577;52.410;13.242;2022-12-01T13:53:31;68.93;;;23.98;;
70924;SDS011;58577;52.410;13.242;2022-12-01T13:56:25;60.05;;;23.88;;
70924;SDS011;58577;52.410;13.242;2022-12-01T14:00:00;60.33;;;22.80;;
70924;SDS011;58577;52.410;13.242;2022-12-01T14:06:06;63.15;;;25.58;;
70924;SDS011;58577;52.410;13.242;2022-12-01T14:09:00;62.33;;;23.33;;
70924;SDS011;58577;52.410;13.242;2022-12-01T14:12:32;66.38;;;24.95;;
70924;SDS011;58577;52.410;13.242;2022-12-01T14:15:19;60.22;;;24.52;;
70924;SDS011;58577;52.410;13.242;2022-12-01T14:18:14;57.45;;;23.00;;
70924;SDS011;58577;52.410;13.242;2022-12-01T14:21:09;57.50;;;23.23;;
70924;SDS011;58577;52.410;13.242;2022-12-01T14:24:01;61.90;;;23.02;;
70924;SDS011;58577;52.410;13.242;2022-12-01T14:26:49;63.47;;;23.92;;
70924;SDS011;58577;52.410;13.242;2022-12-01T14:29:37;63.13;;;23.15;;
70924;SDS011;58577;52.410;13.242;2022-12-01T14:32:27;58.70;;;24.05;;
70924;SDS011;58577;52.410;13.242;2022-12-01T14:35:13;65.45;;;24.65;;
70924;SDS011;58577;52.410;13.242;2022-12-01T14:37:59;66.25;;;24.17;;
70924;SDS011;58577;52.410;13.242;2022-12-01T14:40:49;56.53;;;22.75;;
70924;SDS011;58577;52.410;13.242;2022-12-01T14:43:36;56.38;;;21.85;;
70924;SDS011;58577;52.410;13.242;2022-12-01T14:46:47;52.45;;;21.13;;
70924;SDS011;58577;52.410;13.242;2022-12-01T14:52:48;60.00;;;23.95;;
70924;SDS011;58577;52.410;13.242;2022-12-01T14:55:40;54.95;;;21.33;;
70924;SDS011;58577;52.410;13.242;2022-12-01T14:58:30;55.75;;;22.63;;
70924;SDS011;58577;52.410;13.242;2022-12-01T15:01:18;59.10;;;23.65;;
70924;SDS011;58577;52.410;13.242;2022-12-01T15:04:06;56.60;;;21.98;;
70924;SDS011;58577;52.410;13.242;2022-12-01T15:06:53;60.17;;;22.83;;
70924;SDS011;58577;52.410;13.242;2022-12-01T15:09:56;57.97;;;23.90;;
70924;SDS011;58577;52.410;13.242;2022-12-01T15:12:43;54.90;;;22.25;;
70924;SDS011;58577;52.410;13.242;2022-12-01T15:15:29;63.53;;;22.42;;
70924;SDS011;58577;52.410;13.242;2022-12-01T15:18:22;53.17;;;21.38;;
70924;SDS011;58577;52.410;13.242;2022-12-01T15:24:19;58.92;;;24.33;;
70924;SDS011;58577;52.410;13.242;2022-12-01T15:30:28;56.42;;;23.67;;
70924;SDS011;58577;52.410;13.242;2022-12-01T15:33:17;57.90;;;22.73;;
70924;SDS011;58577;52.410;13.242;2022-12-01T15:36:05;54.25;;;21.42;;
70924;SDS011;58577;52.410;13.242;2022-12-01T15:38:52;56.75;;;24.20;;
70924;SDS011;58577;52.410;13.242;2022-12-01T15:41:38;58.55;;;23.20;;
70924;SDS011;58577;52.410;13.242;2022-12-01T15:44:30;62.33;;;23.77;;
70924;SDS011;58577;52.410;13.242;2022-12-01T15:47:34;55.08;;;22.27;;
70924;SDS011;58577;52.410;13.242;2022-12-01T15:50:29;59.03;;;22.02;;
70924;SDS011;58577;52.410;13.242;2022-12-01T15:53:22;52.83;;;21.98;;
70924;SDS011;58577;52.410;13.242;2022-12-01T15:56:11;59.72;;;23.20;;
70924;SDS011;58577;52.410;13.242;2022-12-01T15:59:01;63.95;;;24.65;;
70924;SDS011;58577;52.410;13.242;2022-12-01T16:02:05;59.63;;;22.45;;
70924;SDS011;58577;52.410;13.242;2022-12-01T16:05:14;58.45;;;22.23;;
70924;SDS011;58577;52.410;13.242;2022-12-01T16:08:15;59.45;;;22.25;;
70924;SDS011;58577;52.410;13.242;2022-12-01T16:11:14;60.30;;;24.52;;
70924;SDS011;58577;52.410;13.242;2022-12-01T16:17:03;58.33;;;22.80;;
70924;SDS011;58577;52.410;13.242;2022-12-01T16:23:08;59.20;;;22.70;;
70924;SDS011;58577;52.410;13.242;2022-12-01T16:25:55;56.10;;;21.77;;
70924;SDS011;58577;52.410;13.242;2022-12-01T16:28:41;53.83;;;22.70;;
70924;SDS011;58577;52.410;13.242;2022-12-01T16:31:27;54.25;;;24.08;;
70924;SDS011;58577;52.410;13.242;2022-12-01T16:34:14;60.22;;;23.67;;
70924;SDS011;58577;52.410;13.242;2022-12-01T16:37:02;56.55;;;23.85;;
70924;SDS011;58577;52.410;13.242;2022-12-01T16:39:48;58.22;;;23.40;;
70924;SDS011;58577;52.410;13.242;2022-12-01T16:42:34;59.10;;;22.90;;
70924;SDS011;58577;52.410;13.242;2022-12-01T16:45:20;58.20;;;24.17;;
70924;SDS011;58577;52.410;13.242;2022-12-01T16:48:05;60.17;;;25.65;;
70924;SDS011;58577;52.410;13.242;2022-12-01T16:50:51;62.00;;;24.83;;
70924;SDS011;58577;52.410;13.242;2022-12-01T16:53:39;57.13;;;23.58;;
70924;SDS011;58577;52.410;13.242;2022-12-01T16:56:24;69.55;;;27.42;;
70924;SDS011;58577;52.410;13.242;2022-12-01T16:59:11;65.03;;;24.00;;
70924;SDS011;58577;52.410;13.242;2022-12-01T17:01:57;76.65;;;28.60;;
70924;SDS011;58577;52.410;13.242;2022-12-01T17:04:43;73.88;;;29.55;;
70924;SDS011;58577;52.410;13.242;2022-12-01T17:07:29;73.60;;;28.83;;
70924;SDS011;58577;52.410;13.242;2022-12-01T17:10:15;61.50;;;24.15;;
70924;SDS011;58577;52.410;13.242;2022-12-01T17:13:02;62.95;;;25.00;;
70924;SDS011;58577;52.410;13.242;2022-12-01T17:15:50;69.43;;;27.00;;
70924;SDS011;58577;52.410;13.242;2022-12-01T17:18:38;69.32;;;26.95;;
70924;SDS011;58577;52.410;13.242;2022-12-01T17:21:24;60.63;;;25.77;;
70924;SDS011;58577;52.410;13.242;2022-12-01T17:24:09;60.03;;;24.80;;
70924;SDS011;58577;52.410;13.242;2022-12-01T17:26:56;68.10;;;25.60;;
70924;SDS011;58577;52.410;13.242;2022-12-01T17:29:42;63.25;;;23.95;;
70924;SDS011;58577;52.410;13.242;2022-12-01T17:32:29;63.10;;;26.48;;
70924;SDS011;58577;52.410;13.242;2022-12-01T17:35:15;65.90;;;23.80;;
70924;SDS011;58577;52.410;13.242;2022-12-01T17:38:01;69.05;;;26.08;;
70924;SDS011;58577;52.410;13.242;2022-12-01T17:40:57;73.82;;;25.23;;
70924;SDS011;58577;52.410;13.242;2022-12-01T17:43:53;68.05;;;25.50;;
70924;SDS011;58577;52.410;13.242;2022-12-01T17:46:38;64.13;;;26.25;;
70924;SDS011;58577;52.410;13.242;2022-12-01T17:49:26;65.90;;;24.05;;
70924;SDS011;58577;52.410;13.242;2022-12-01T17:52:11;65.47;;;25.75;;
70924;SDS011;58577;52.410;13.242;2022-12-01T17:54:57;63.40;;;24.40;;
70924;SDS011;58577;52.410;13.242;2022-12-01T17:57:43;67.50;;;24.85;;
70924;SDS011;58577;52.410;13.242;2022-12-01T18:00:29;70.05;;;27.67;;
70924;SDS011;58577;52.410;13.242;2022-12-01T18:03:16;71.63;;;27.60;;
70924;SDS011;58577;52.410;13.242;2022-12-01T18:06:02;73.68;;;27.02;;
70924;SDS011;58577;52.410;13.242;2022-12-01T18:08:48;75.15;;;25.77;;
70924;SDS011;58577;52.410;13.242;2022-12-01T18:11:33;67.03;;;26.00;;
70924;SDS011;58577;52.410;13.242;2022-12-01T18:14:19;71.35;;;26.77;;
70924;SDS011;58577;52.410;13.242;2022-12-01T18:17:06;67.07;;;25.75;;
70924;SDS011;58577;52.410;13.242;2022-12-01T18:19:52;66.88;;;25.42;;
70924;SDS011;58577;52.410;13.242;2022-12-01T18:22:41;69.25;;;27.83;;
70924;SDS011;58577;52.410;13.242;2022-12-01T18:25:27;67.78;;;27.10;;
70924;SDS011;58577;52.410;13.242;2022-12-01T18:28:13;70.78;;;27.58;;
70924;SDS011;58577;52.410;13.242;2022-12-01T18:31:03;70.72;;;26.20;;
70924;SDS011;58577;52.410;13.242;2022-12-01T18:33:55;69.18;;;25.70;;
70924;SDS011;58577;52.410;13.242;2022-12-01T18:36:42;74.43;;;28.00;;
70924;SDS011;58577;52.410;13.242;2022-12-01T18:39:28;63.55;;;25.67;;
70924;SDS011;58577;52.410;13.242;2022-12-01T18:42:14;66.80;;;23.48;;